Heat Index [SAI AWOS/ASOS Display]_________FAA Disclaimer: "Not for use in aviation at this time______________" Untitled Document
Indianapolis Executive Airport IN
000
19:11
17/06/27
00
N/A
N/A
30.15
N/A
922
67(F), 19(C)
43(F), 6(C)
67 F
43%
SCT060
10
N/A
N/A
N/A
19:11 zulu Wind Calm, Altimeter 30.15
METAR KTYQ 271911Z AUTO 00000KT 10SM SCT060 19/06 A3015 A02
METAR:
FAA Disclaimer--Advisory Use ONLY, not for flight info-- 2/21/2009: Airport FBO 317-769-3288... New URL for smartphones... http://www.saiawos2.com/TYQ
INFO:
Wind Direction:
Wind Speed:
Wind Gust:
Wind Variable:
Altimeter:
Dens Alt:
Elev:
Temp:
Dwpt:
Wind Chill
Rel Humidity:
Ceiling:
Visibility:
Prsnt Wea:
PCPN:
Remarks:
How to read the WebPage